Time;durP1;ratioP1;P1;durP2;ratioP2;P2;SDS_P1;SDS_P2;PMS_P1;PMS_P2;Temp;Humidity;BMP_temperature;BMP_pressure;BME280_temperature;BME280_humidity;BME280_pressure;Samples;Min_cycle;Max_cycle;Signal;HPM_P1;HPM_P2
2021/12/18 00:01:27;;;;;;;16.80;7.28;;;;;;;8.53;100.00;103962.16;5002528;28;20050;-71
2021/12/18 00:03:52;;;;;;;18.23;7.45;;;;;;;8.53;100.00;103950.44;5002545;28;20103;-71
2021/12/18 00:06:18;;;;;;;19.90;8.25;;;;;;;8.44;100.00;103944.41;5000193;28;20045;-70
2021/12/18 00:08:44;;;;;;;16.10;7.18;;;;;;;8.44;100.00;103949.84;5001295;28;20061;-70
2021/12/18 00:11:11;;;;;;;19.05;7.97;;;;;;;8.34;100.00;103949.41;4993474;28;20057;-73
2021/12/18 00:13:37;;;;;;;16.50;7.63;;;;;;;8.38;100.00;103947.94;4997852;28;20473;-70
2021/12/18 00:16:02;;;;;;;16.90;8.20;;;;;;;8.46;100.00;103942.28;4982549;28;20443;-71
2021/12/18 00:18:29;;;;;;;17.95;8.15;;;;;;;8.46;100.00;103944.16;4979320;28;20475;-71
2021/12/18 00:20:57;;;;;;;15.90;7.80;;;;;;;8.49;100.00;103941.84;4980524;28;20145;-71
2021/12/18 00:23:22;;;;;;;17.10;8.10;;;;;;;8.43;100.00;103953.59;4981361;28;20042;-71
2021/12/18 00:25:48;;;;;;;22.77;8.38;;;;;;;8.55;100.00;103949.19;4982899;28;20053;-71
2021/12/18 00:28:13;;;;;;;21.20;8.02;;;;;;;8.52;100.00;103940.59;4982429;28;20050;-71
2021/12/18 00:30:39;;;;;;;21.55;7.72;;;;;;;8.35;100.00;103946.47;4947674;28;20042;-71
2021/12/18 00:33:06;;;;;;;19.63;7.35;;;;;;;8.15;100.00;103951.94;4981647;28;20053;-70
2021/12/18 00:35:33;;;;;;;19.80;7.78;;;;;;;8.25;100.00;103948.78;4982712;28;20042;-71
2021/12/18 00:38:03;;;;;;;20.58;7.65;;;;;;;8.41;100.00;103947.56;4983017;28;20376;-70
2021/12/18 00:40:36;;;;;;;21.00;8.52;;;;;;;8.36;100.00;103950.03;4981804;28;20473;-70
2021/12/18 00:43:13;;;;;;;14.05;7.15;;;;;;;8.21;100.00;103946.72;4981451;28;20046;-71
2021/12/18 00:45:40;;;;;;;17.83;7.00;;;;;;;8.41;100.00;103942.13;4980781;28;20038;-70
2021/12/18 00:48:05;;;;;;;24.83;9.13;;;;;;;8.30;100.00;103959.88;4981164;28;20038;-71
2021/12/18 00:50:31;;;;;;;26.67;8.40;;;;;;;8.35;100.00;103948.38;4981988;28;20120;-70
2021/12/18 00:52:57;;;;;;;17.80;8.63;;;;;;;8.38;100.00;103948.81;4981025;28;20057;-71
2021/12/18 00:55:23;;;;;;;18.70;7.82;;;;;;;8.43;100.00;103945.44;4998983;28;20684;-71
2021/12/18 00:57:50;;;;;;;18.80;8.90;;;;;;;8.28;100.00;103958.41;4998010;28;20056;-71
2021/12/18 01:00:22;;;;;;;25.40;9.00;;;;;;;8.39;100.00;103945.03;4997505;28;20038;-71
2021/12/18 01:02:49;;;;;;;21.02;7.47;;;;;;;8.26;100.00;103955.91;4985505;28;20215;-71
2021/12/18 01:05:15;;;;;;;19.35;8.30;;;;;;;8.24;100.00;103952.56;4977984;28;20161;-70
2021/12/18 01:07:41;;;;;;;25.60;8.68;;;;;;;8.35;100.00;103953.81;4958759;28;20044;-71
2021/12/18 01:10:27;;;;;;;22.65;9.95;;;;;;;8.31;100.00;103953.38;4977556;28;20582;-70
2021/12/18 01:12:55;;;;;;;28.13;10.63;;;;;;;8.35;100.00;103942.94;4977419;28;20458;-73
2021/12/18 01:15:30;;;;;;;23.75;10.13;;;;;;;8.55;100.00;103942.88;4976576;28;20409;-70
2021/12/18 01:23:25;;;;;;;26.95;10.15;;;;;;;8.44;100.00;103947.13;4974753;28;20034;-70
2021/12/18 01:25:52;;;;;;;26.15;11.05;;;;;;;8.32;100.00;103943.31;4976486;28;20077;-69
2021/12/18 01:28:18;;;;;;;25.92;10.98;;;;;;;8.35;100.00;103940.22;4976166;28;20462;-71
2021/12/18 01:30:43;;;;;;;28.98;11.77;;;;;;;8.37;100.00;103941.66;4976634;28;20076;-70
2021/12/18 01:33:09;;;;;;;24.45;11.20;;;;;;;8.42;100.00;103945.66;4975587;28;20053;-70
2021/12/18 01:35:35;;;;;;;24.75;10.48;;;;;;;8.46;100.00;103945.00;4976519;28;20124;-69
2021/12/18 01:38:02;;;;;;;27.08;11.40;;;;;;;8.43;100.00;103942.72;4976679;28;20101;-69
2021/12/18 01:40:27;;;;;;;27.80;10.60;;;;;;;8.22;100.00;103943.78;4977047;28;20046;-71
2021/12/18 01:43:50;;;;;;;23.73;10.98;;;;;;;8.20;100.00;103955.91;4958565;28;20097;-70
2021/12/18 01:51:22;;;;;;;31.05;11.48;;;;;;;8.40;100.00;103945.84;4995250;28;20313;-70
2021/12/18 01:53:52;;;;;;;26.67;9.77;;;;;;;8.45;100.00;103954.22;4976822;28;20068;-70
2021/12/18 01:56:17;;;;;;;28.00;11.02;;;;;;;8.64;100.00;103954.38;4995376;28;20046;-71
2021/12/18 01:58:46;;;;;;;25.35;10.05;;;;;;;8.44;100.00;103952.56;4988371;28;20274;-71
2021/12/18 02:01:13;;;;;;;28.05;11.10;;;;;;;8.32;100.00;103951.47;4996311;28;20505;-70
2021/12/18 02:03:39;;;;;;;33.60;10.93;;;;;;;8.29;100.00;103949.19;4977641;28;20038;-71
2021/12/18 02:06:05;;;;;;;27.88;11.27;;;;;;;8.40;100.00;103940.41;4977946;28;20053;-71
2021/12/18 02:08:33;;;;;;;27.75;11.32;;;;;;;8.50;100.00;103940.81;4978263;28;20057;-71
2021/12/18 02:11:09;;;;;;;29.85;11.43;;;;;;;8.40;100.00;103937.69;4959585;28;20042;-71
2021/12/18 02:13:57;;;;;;;29.77;12.15;;;;;;;8.40;100.00;103934.97;4975131;28;20112;-71
2021/12/18 02:21:49;;;;;;;35.35;11.82;;;;;;;8.45;100.00;103931.63;4977645;28;20053;-71
2021/12/18 02:24:16;;;;;;;34.00;12.95;;;;;;;8.33;100.00;103928.72;4977032;28;20038;-71
2021/12/18 02:26:41;;;;;;;40.63;13.18;;;;;;;8.39;100.00;103930.59;4959359;28;20523;-71
2021/12/18 02:29:10;;;;;;;35.63;12.45;;;;;;;8.12;100.00;103932.50;4976912;28;20042;-71
2021/12/18 02:31:36;;;;;;;34.63;12.00;;;;;;;8.22;100.00;103923.91;4977147;28;20133;-71
2021/12/18 02:34:03;;;;;;;32.20;13.15;;;;;;;8.30;100.00;103920.97;4976399;28;20046;-70
2021/12/18 02:36:29;;;;;;;35.90;12.20;;;;;;;8.13;100.00;103928.75;4976839;28;20046;-71
2021/12/18 02:39:21;;;;;;;33.05;12.60;;;;;;;8.05;100.00;103921.63;4976829;28;20038;-71
2021/12/18 02:42:06;;;;;;;30.30;11.90;;;;;;;8.02;100.00;103927.50;4958736;28;20439;-69
2021/12/18 02:44:32;;;;;;;35.28;12.10;;;;;;;8.01;100.00;103925.81;4978994;28;20043;-71
2021/12/18 02:46:57;;;;;;;28.95;11.65;;;;;;;8.17;100.00;103919.09;4980081;28;20665;-71
2021/12/18 02:49:25;;;;;;;32.15;11.30;;;;;;;8.34;100.00;103919.50;4972738;28;20077;-71
2021/12/18 02:51:50;;;;;;;29.67;11.10;;;;;;;8.31;100.00;103914.47;4999545;28;20349;-72
2021/12/18 02:54:15;;;;;;;28.75;10.77;;;;;;;8.40;100.00;103918.66;4999489;28;20038;-71
2021/12/18 02:56:41;;;;;;;27.13;10.57;;;;;;;8.35;100.00;103922.00;4999591;28;20525;-72
2021/12/18 02:59:08;;;;;;;25.92;10.93;;;;;;;8.42;100.00;103913.84;4999669;28;20038;-71
2021/12/18 03:01:37;;;;;;;26.85;9.65;;;;;;;8.23;100.00;103917.41;4978377;28;20373;-70
2021/12/18 03:04:12;;;;;;;27.33;10.60;;;;;;;8.11;100.00;103911.78;4980354;28;20054;-71
2021/12/18 03:06:42;;;;;;;27.52;10.95;;;;;;;8.08;100.00;103910.34;4980939;28;20049;-71
2021/12/18 03:25:27;;;;;;;23.95;8.93;;;;;;;8.00;100.00;103912.44;4979157;28;20046;-71
2021/12/18 03:27:51;;;;;;;18.58;8.82;;;;;;;8.06;100.00;103909.72;4977650;28;20161;-70
2021/12/18 03:30:17;;;;;;;21.60;8.85;;;;;;;8.20;100.00;103901.53;4978349;28;20042;-71
2021/12/18 03:32:43;;;;;;;22.20;9.18;;;;;;;8.11;100.00;103907.19;4978747;28;20068;-71
2021/12/18 03:35:09;;;;;;;23.98;8.80;;;;;;;8.24;100.00;103905.53;4978332;28;20046;-70
2021/12/18 03:37:35;;;;;;;27.48;8.98;;;;;;;8.01;100.00;103914.97;4976030;28;20081;-71
2021/12/18 03:40:03;;;;;;;25.83;9.73;;;;;;;8.00;100.00;103904.28;4978322;28;20113;-71
2021/12/18 03:42:29;;;;;;;20.05;9.63;;;;;;;7.97;100.00;103912.84;4976370;28;20384;-71
2021/12/18 03:44:54;;;;;;;32.20;10.68;;;;;;;7.95;100.00;103910.38;4977919;28;20037;-71
2021/12/18 03:47:19;;;;;;;29.75;11.35;;;;;;;8.20;100.00;103907.81;4978549;28;20046;-71
2021/12/18 03:49:45;;;;;;;31.75;11.50;;;;;;;8.19;100.00;103910.75;4992649;28;20487;-71
2021/12/18 03:52:10;;;;;;;34.35;12.80;;;;;;;8.18;100.00;103903.66;4980180;28;20046;-71
2021/12/18 03:54:36;;;;;;;40.20;11.95;;;;;;;8.00;100.00;103913.28;4963246;28;20478;-71
2021/12/18 03:57:02;;;;;;;34.97;11.75;;;;;;;8.01;100.00;103914.97;4997663;28;20049;-71
2021/12/18 03:59:27;;;;;;;35.25;11.48;;;;;;;7.83;100.00;103909.34;4997453;28;20045;-71
2021/12/18 04:01:53;;;;;;;41.63;11.57;;;;;;;7.68;100.00;103915.81;4980298;28;20054;-71
2021/12/18 04:04:19;;;;;;;26.63;9.70;;;;;;;7.39;100.00;103921.66;4998239;28;20049;-70
2021/12/18 04:06:44;;;;;;;33.85;10.57;;;;;;;7.47;100.00;103913.28;4998688;28;20045;-72
2021/12/18 04:09:13;;;;;;;32.42;10.52;;;;;;;7.41;100.00;103908.69;4997753;28;20050;-71
2021/12/18 04:11:40;;;;;;;30.05;9.85;;;;;;;7.45;100.00;103916.22;4998202;28;20042;-71
2021/12/18 04:14:06;;;;;;;33.45;9.82;;;;;;;7.40;100.00;103918.72;4998424;28;20053;-70
2021/12/18 04:16:33;;;;;;;37.38;11.57;;;;;;;7.41;100.00;103908.69;4980531;28;20042;-71
2021/12/18 04:19:01;;;;;;;32.90;9.13;;;;;;;7.19;100.00;103910.75;4997987;28;20123;-71
2021/12/18 04:21:28;;;;;;;37.03;10.23;;;;;;;7.16;100.00;103903.84;4979910;28;20044;-71
2021/12/18 04:23:53;;;;;;;31.10;9.82;;;;;;;7.36;100.00;103889.44;4997851;28;20038;-71
2021/12/18 04:26:19;;;;;;;33.55;9.65;;;;;;;7.22;100.00;103892.16;4997143;28;20289;-71
2021/12/18 04:28:44;;;;;;;30.65;7.93;;;;;;;7.12;100.00;103891.72;4997042;28;20041;-71
2021/12/18 04:31:09;;;;;;;27.00;8.77;;;;;;;7.18;100.00;103881.91;4997513;28;20203;-71
2021/12/18 04:33:35;;;;;;;31.05;9.90;;;;;;;7.24;100.00;103879.22;4963174;28;20072;-71
2021/12/18 04:36:00;;;;;;;33.15;9.43;;;;;;;7.22;100.00;103889.44;4997755;28;20045;-71
2021/12/18 04:38:26;;;;;;;30.55;8.60;;;;;;;7.34;100.00;103886.13;4997807;28;20060;-70
2021/12/18 04:40:51;;;;;;;27.38;7.68;;;;;;;6.98;100.00;103892.72;4996982;28;20073;-70
2021/12/18 04:43:17;;;;;;;26.27;8.25;;;;;;;7.12;100.00;103886.28;4997125;28;20643;-70
2021/12/18 04:45:43;;;;;;;33.35;9.10;;;;;;;7.12;100.00;103880.03;4997527;28;20092;-70
2021/12/18 04:48:08;;;;;;;29.10;8.35;;;;;;;7.15;100.00;103888.59;4996766;28;20713;-71
2021/12/18 04:50:34;;;;;;;36.47;8.98;;;;;;;7.12;100.00;103883.56;4997696;28;20041;-72
2021/12/18 04:52:59;;;;;;;33.75;8.60;;;;;;;7.11;100.00;103879.19;4997326;28;20045;-71
2021/12/18 04:55:24;;;;;;;24.73;8.82;;;;;;;7.28;100.00;103881.53;4997460;28;20045;-71
2021/12/18 04:57:51;;;;;;;36.70;9.52;;;;;;;7.21;100.00;103887.78;4997343;28;20456;-71
2021/12/18 05:00:20;;;;;;;34.70;8.68;;;;;;;7.45;100.00;103877.38;4978837;28;20045;-71
2021/12/18 05:02:49;;;;;;;27.85;7.50;;;;;;;7.25;100.00;103877.34;4997599;28;20053;-71
2021/12/18 05:05:15;;;;;;;27.50;7.07;;;;;;;7.25;100.00;103889.03;4995357;28;20470;-70
2021/12/18 05:07:42;;;;;;;21.35;7.35;;;;;;;7.12;100.00;103888.16;4979950;28;20045;-70
2021/12/18 05:10:09;;;;;;;28.60;8.05;;;;;;;7.16;100.00;103890.28;4998120;28;20046;-70
2021/12/18 05:12:35;;;;;;;25.15;7.38;;;;;;;7.18;100.00;103893.59;4997288;28;20459;-70
2021/12/18 05:15:00;;;;;;;28.27;6.75;;;;;;;7.20;100.00;103893.41;4996084;28;20549;-71
2021/12/18 05:17:26;;;;;;;26.00;6.97;;;;;;;7.02;100.00;103894.84;4999137;28;20065;-70
2021/12/18 05:19:52;;;;;;;28.17;7.50;;;;;;;6.96;100.00;103894.81;4999075;28;20034;-71
2021/12/18 05:22:17;;;;;;;34.70;8.32;;;;;;;6.90;100.00;103898.34;4998481;28;20042;-70
2021/12/18 05:24:43;;;;;;;36.42;7.72;;;;;;;6.78;100.00;103898.09;4998778;28;20034;-70
2021/12/18 05:27:08;;;;;;;31.50;6.72;;;;;;;6.76;100.00;103895.59;4999481;28;20483;-71
2021/12/18 05:29:33;;;;;;;27.98;6.72;;;;;;;6.78;100.00;103900.81;5000172;28;20042;-70
2021/12/18 05:31:59;;;;;;;22.38;5.53;;;;;;;6.62;100.00;103902.00;4999900;28;20562;-71
2021/12/18 05:34:26;;;;;;;18.08;4.90;;;;;;;6.55;100.00;103895.72;5001552;28;20129;-71
2021/12/18 05:39:24;;;;;;;23.73;5.90;;;;;;;6.61;100.00;103886.78;5000448;28;20049;-71
2021/12/18 05:41:51;;;;;;;33.15;6.45;;;;;;;6.54;100.00;103888.59;5001092;28;20040;-71
2021/12/18 05:44:21;;;;;;;18.27;5.13;;;;;;;6.54;100.00;103880.47;5000445;28;20037;-71
2021/12/18 05:46:47;;;;;;;23.17;6.22;;;;;;;6.62;100.00;103884.88;4981469;28;20556;-71
2021/12/18 05:49:13;;;;;;;22.08;5.32;;;;;;;6.55;100.00;103887.56;4990693;28;20046;-70
2021/12/18 05:51:39;;;;;;;24.38;6.47;;;;;;;6.65;100.00;103888.03;4982164;28;20459;-71
2021/12/18 05:54:05;;;;;;;19.27;4.90;;;;;;;6.69;100.00;103889.31;4980496;28;20046;-71
2021/12/18 05:56:31;;;;;;;19.88;5.47;;;;;;;6.63;100.00;103892.81;4981860;28;20133;-71
2021/12/18 05:58:58;;;;;;;22.20;5.57;;;;;;;6.73;100.00;103885.13;4981218;28;20120;-71
2021/12/18 06:01:24;;;;;;;35.92;5.70;;;;;;;6.62;100.00;103888.44;4992443;28;20179;-71
2021/12/18 06:03:50;;;;;;;15.85;4.95;;;;;;;6.80;100.00;103874.31;4982145;28;20442;-72
2021/12/18 06:06:15;;;;;;;24.30;4.95;;;;;;;6.87;100.00;103890.63;4981804;28;20396;-72
2021/12/18 06:08:42;;;;;;;18.30;5.05;;;;;;;6.69;100.00;103886.59;4981667;28;20050;-70
2021/12/18 06:11:15;;;;;;;21.55;4.53;;;;;;;6.86;100.00;103881.63;4981183;28;20046;-71
2021/12/18 06:13:45;;;;;;;18.15;4.85;;;;;;;7.06;100.00;103878.97;4981853;28;20167;-70
2021/12/18 06:16:11;;;;;;;18.38;5.55;;;;;;;7.10;100.00;103879.38;4982647;28;20146;-72
2021/12/18 06:18:42;;;;;;;26.80;5.90;;;;;;;7.01;100.00;103887.75;4967019;28;20041;-71
2021/12/18 06:21:09;;;;;;;25.20;5.13;;;;;;;6.80;100.00;103880.56;4986278;28;20049;-71
2021/12/18 06:23:35;;;;;;;21.35;4.82;;;;;;;6.99;100.00;103886.28;4985524;28;20038;-71
2021/12/18 06:26:00;;;;;;;19.88;4.45;;;;;;;6.99;100.00;103888.97;4984380;28;20462;-71
2021/12/18 06:28:26;;;;;;;28.50;5.18;;;;;;;6.95;100.00;103883.13;4966670;28;20034;-71
2021/12/18 06:30:52;;;;;;;25.77;4.72;;;;;;;6.92;100.00;103893.53;4966045;28;20054;-71
2021/12/18 06:33:18;;;;;;;18.05;4.80;;;;;;;6.90;100.00;103892.94;4983202;28;20069;-71
2021/12/18 06:35:43;;;;;;;22.45;4.47;;;;;;;6.97;100.00;103899.19;4982120;28;20387;-70
2021/12/18 06:38:09;;;;;;;27.08;5.47;;;;;;;7.01;100.00;103901.31;4982257;28;20494;-70
2021/12/18 06:40:34;;;;;;;19.73;4.47;;;;;;;6.95;100.00;103896.72;4982023;28;20380;-71
2021/12/18 06:43:00;;;;;;;10.38;3.58;;;;;;;6.89;100.00;103902.91;4981977;28;20499;-71
2021/12/18 06:45:26;;;;;;;22.13;5.03;;;;;;;6.99;100.00;103903.38;4981594;28;20132;-72
2021/12/18 06:47:52;;;;;;;18.13;4.05;;;;;;;6.82;100.00;103910.22;4981036;28;20060;-71
2021/12/18 06:50:18;;;;;;;19.58;4.72;;;;;;;6.89;100.00;103910.22;4981067;28;20038;-71
2021/12/18 06:52:44;;;;;;;29.10;5.65;;;;;;;6.84;100.00;103907.31;4981484;28;20046;-71
2021/12/18 06:55:09;;;;;;;26.90;5.93;;;;;;;6.74;100.00;103905.78;4963676;28;20042;-70
2021/12/18 06:57:35;;;;;;;25.30;6.05;;;;;;;6.54;100.00;103902.16;4981993;28;20037;-71
2021/12/18 07:00:00;;;;;;;17.73;4.43;;;;;;;6.53;100.00;103900.50;4981831;28;20047;-71
2021/12/18 07:02:26;;;;;;;25.33;5.75;;;;;;;6.53;100.00;103903.19;5000610;28;20042;-72
2021/12/18 07:04:51;;;;;;;15.30;4.38;;;;;;;6.39;100.00;103898.75;4999853;28;20455;-71
2021/12/18 07:07:17;;;;;;;22.08;4.95;;;;;;;6.58;100.00;103906.16;4999625;28;20550;-71
2021/12/18 07:09:43;;;;;;;18.20;5.53;;;;;;;6.41;100.00;103904.81;4999600;28;20547;-71
2021/12/18 07:12:10;;;;;;;16.92;4.15;;;;;;;6.37;100.00;103911.66;5000144;28;20153;-71
2021/12/18 07:14:36;;;;;;;18.10;5.18;;;;;;;6.55;100.00;103904.69;5000036;28;20389;-71
2021/12/18 07:17:02;;;;;;;20.10;4.75;;;;;;;6.65;100.00;103904.28;4999274;28;20057;-72
2021/12/18 07:19:28;;;;;;;18.60;4.97;;;;;;;6.45;100.00;103915.03;5000029;28;20048;-71
2021/12/18 07:21:53;;;;;;;7.88;2.67;;;;;;;6.25;100.00;103914.91;4999339;28;20377;-71
2021/12/18 07:24:19;;;;;;;12.55;3.15;;;;;;;6.28;100.00;103909.13;4999254;28;20044;-71
2021/12/18 07:26:44;;;;;;;7.50;2.70;;;;;;;6.37;100.00;103917.06;4999533;28;20053;-71
2021/12/18 07:29:10;;;;;;;9.52;2.70;;;;;;;6.27;100.00;103915.56;4980993;28;20105;-71
2021/12/18 07:31:35;;;;;;;9.13;2.97;;;;;;;6.55;100.00;103914.69;4999156;28;20108;-72
2021/12/18 07:34:00;;;;;;;11.63;3.03;;;;;;;6.64;100.00;103918.06;4996232;28;20116;-71
2021/12/18 07:36:26;;;;;;;10.65;3.38;;;;;;;6.67;100.00;103913.06;4999906;28;20064;-71
2021/12/18 07:38:51;;;;;;;10.20;3.30;;;;;;;6.35;100.00;103920.00;4998691;28;20115;-71
2021/12/18 07:41:17;;;;;;;11.20;3.60;;;;;;;6.49;100.00;103920.91;4996357;28;20034;-70
2021/12/18 07:43:42;;;;;;;14.15;3.95;;;;;;;6.57;100.00;103920.72;4980513;28;20042;-71
2021/12/18 07:46:08;;;;;;;16.63;4.25;;;;;;;6.54;100.00;103918.41;4978505;28;20899;-70
2021/12/18 07:48:33;;;;;;;17.08;4.05;;;;;;;6.24;100.00;103918.69;4976729;28;20099;-71
2021/12/18 07:50:59;;;;;;;16.52;4.30;;;;;;;6.20;100.00;103922.84;4982892;28;20466;-70
2021/12/18 07:53:24;;;;;;;9.75;3.47;;;;;;;6.24;100.00;103924.09;4980406;28;20038;-71
2021/12/18 07:55:50;;;;;;;14.25;3.45;;;;;;;6.41;100.00;103912.94;4984687;28;20448;-71
2021/12/18 07:58:16;;;;;;;14.80;3.65;;;;;;;6.61;100.00;103913.88;4977993;28;20334;-71
2021/12/18 08:00:43;;;;;;;12.15;3.30;;;;;;;6.62;100.00;103918.25;4981717;28;20049;-71
2021/12/18 08:03:08;;;;;;;15.68;4.28;;;;;;;6.48;100.00;103914.63;4977221;28;20041;-71
2021/12/18 08:05:34;;;;;;;12.50;3.47;;;;;;;6.55;100.00;103925.53;4984092;28;20053;-71
2021/12/18 08:08:00;;;;;;;16.77;4.50;;;;;;;6.65;100.00;103920.56;4982528;28;20124;-71
2021/12/18 08:10:25;;;;;;;16.15;4.13;;;;;;;6.42;100.00;103920.03;4981361;28;20577;-70
2021/12/18 08:12:50;;;;;;;20.73;5.05;;;;;;;6.40;100.00;103922.09;4989111;28;20034;-71
2021/12/18 08:15:16;;;;;;;11.43;3.42;;;;;;;6.33;100.00;103917.47;4983155;28;20049;-71
2021/12/18 08:17:42;;;;;;;10.02;2.90;;;;;;;6.24;100.00;103918.69;4987475;28;20080;-71
2021/12/18 08:20:08;;;;;;;12.13;2.75;;;;;;;6.15;100.00;103913.63;4992651;28;20510;-70
2021/12/18 08:22:34;;;;;;;8.45;2.70;;;;;;;6.22;100.00;103914.50;4979492;28;20049;-70
2021/12/18 08:25:01;;;;;;;18.58;3.42;;;;;;;5.96;100.00;103920.56;4979569;28;20354;-71
2021/12/18 08:27:27;;;;;;;20.10;4.15;;;;;;;5.94;100.00;103922.66;4979786;28;20316;-70
2021/12/18 08:29:53;;;;;;;10.73;3.60;;;;;;;6.22;100.00;103926.16;4997543;28;20116;-70
2021/12/18 08:32:19;;;;;;;11.30;3.35;;;;;;;6.32;100.00;103915.81;4997692;28;20101;-70
2021/12/18 08:34:45;;;;;;;11.50;3.53;;;;;;;6.38;100.00;103916.06;4996961;28;20063;-71
2021/12/18 08:37:10;;;;;;;8.93;3.38;;;;;;;6.44;100.00;103917.97;4976924;28;20480;-71
2021/12/18 08:39:35;;;;;;;9.27;2.70;;;;;;;6.37;100.00;103922.50;4993399;28;20389;-71
2021/12/18 08:42:04;;;;;;;10.57;2.70;;;;;;;6.34;100.00;103921.03;4995933;28;20069;-71
2021/12/18 08:44:31;;;;;;;9.38;3.15;;;;;;;6.38;100.00;103922.31;4993904;28;20156;-70
2021/12/18 08:46:57;;;;;;;13.20;3.30;;;;;;;6.41;100.00;103926.50;4995520;28;20069;-71
2021/12/18 08:49:24;;;;;;;7.68;3.03;;;;;;;6.44;100.00;103923.38;4994160;28;20464;-70
2021/12/18 08:51:51;;;;;;;10.38;4.05;;;;;;;6.22;100.00;103926.16;4993782;28;20413;-71
2021/12/18 08:54:16;;;;;;;14.65;4.00;;;;;;;6.21;100.00;103919.06;4995923;28;20546;-71
2021/12/18 08:56:42;;;;;;;10.65;3.65;;;;;;;6.41;100.00;103912.94;5009161;28;20493;-71
2021/12/18 08:59:07;;;;;;;15.05;3.35;;;;;;;6.05;100.00;103922.06;4996742;28;20054;-70
2021/12/18 09:01:33;;;;;;;12.02;3.72;;;;;;;6.33;100.00;103912.06;4994799;28;20588;-71
2021/12/18 09:03:58;;;;;;;10.07;3.17;;;;;;;6.16;100.00;103909.88;4996484;28;20038;-71
2021/12/18 09:06:24;;;;;;;9.25;2.47;;;;;;;6.40;100.00;103917.53;4996221;28;20066;-71
2021/12/18 09:08:51;;;;;;;9.60;2.80;;;;;;;6.39;100.00;103913.13;4989423;28;20077;-71
2021/12/18 09:11:16;;;;;;;9.70;3.08;;;;;;;6.51;100.00;103913.41;4993622;28;20145;-70
2021/12/18 09:13:42;;;;;;;8.13;2.60;;;;;;;6.45;100.00;103919.63;4993886;28;20478;-71
2021/12/18 09:16:07;;;;;;;8.05;2.25;;;;;;;6.32;100.00;103914.97;4997383;28;20432;-70
2021/12/18 09:18:33;;;;;;;8.13;2.75;;;;;;;6.49;100.00;103921.75;4990490;28;20091;-71
2021/12/18 09:20:58;;;;;;;7.88;2.47;;;;;;;6.35;100.00;103915.41;4992156;28;20072;-71
2021/12/18 09:23:24;;;;;;;9.15;2.80;;;;;;;6.14;100.00;103920.91;4992956;28;20044;-71
2021/12/18 09:25:51;;;;;;;8.63;3.17;;;;;;;6.42;100.00;103925.44;4999255;28;20469;-70
2021/12/18 09:28:16;;;;;;;6.20;2.58;;;;;;;6.69;100.00;103935.41;4999468;28;20042;-71
2021/12/18 09:30:42;;;;;;;9.73;2.78;;;;;;;6.61;100.00;103934.75;4977781;28;20515;-72
2021/12/18 09:33:13;;;;;;;6.32;2.58;;;;;;;6.65;100.00;103936.00;4995047;28;20349;-71
2021/12/18 09:35:40;;;;;;;6.70;2.50;;;;;;;6.31;100.00;103937.69;4992750;28;20042;-71
2021/12/18 09:38:05;;;;;;;6.88;2.55;;;;;;;6.23;100.00;103938.69;4993700;28;20108;-71
2021/12/18 09:40:32;;;;;;;5.07;2.22;;;;;;;6.01;100.00;103945.19;4991546;28;20045;-71
2021/12/18 09:42:57;;;;;;;6.63;2.45;;;;;;;6.27;100.00;103941.84;4988691;28;20345;-73
2021/12/18 09:45:23;;;;;;;4.75;2.17;;;;;;;6.18;100.00;103937.63;4984537;28;20064;-71
2021/12/18 09:47:49;;;;;;;9.00;3.40;;;;;;;5.88;100.00;103941.31;5007402;28;20045;-71
2021/12/18 09:50:17;;;;;;;10.20;3.00;;;;;;;6.09;100.00;103942.34;5002674;28;20076;-70
2021/12/18 09:52:43;;;;;;;6.43;2.45;;;;;;;6.00;100.00;103954.38;4991221;28;20441;-70
2021/12/18 09:55:09;;;;;;;8.05;3.30;;;;;;;6.04;100.00;103944.78;5000770;28;20399;-71
2021/12/18 09:57:35;;;;;;;5.53;2.60;;;;;;;5.99;100.00;103945.41;4998837;28;20044;-71
2021/12/18 10:00:01;;;;;;;5.22;2.25;;;;;;;6.08;100.00;103946.09;4998486;28;20400;-71
2021/12/18 10:02:38;;;;;;;5.45;2.40;;;;;;;6.10;100.00;103946.72;5002347;28;20045;-71
2021/12/18 10:05:04;;;;;;;5.82;2.30;;;;;;;6.31;100.00;103935.84;5000291;28;20448;-71
2021/12/18 10:07:30;;;;;;;9.65;3.63;;;;;;;6.39;100.00;103933.97;5010095;28;20049;-71
2021/12/18 10:10:00;;;;;;;7.28;3.22;;;;;;;6.28;100.00;103936.22;4996016;28;20042;-71
2021/12/18 10:12:31;;;;;;;9.98;4.53;;;;;;;6.22;100.00;103925.31;4987242;28;20044;-71
2021/12/18 10:15:03;;;;;;;8.05;3.53;;;;;;;6.24;100.00;103929.50;5000324;28;20076;-71
2021/12/18 10:17:38;;;;;;;8.60;3.90;;;;;;;6.27;100.00;103928.28;4986080;28;20034;-71
2021/12/18 10:20:09;;;;;;;8.65;3.55;;;;;;;6.28;100.00;103928.09;5011441;28;20033;-71
2021/12/18 10:22:49;;;;;;;8.48;3.83;;;;;;;6.16;100.00;103921.53;5007741;28;20045;-71
2021/12/18 10:25:18;;;;;;;11.13;4.22;;;;;;;6.12;100.00;103920.28;5000583;28;20080;-71
2021/12/18 10:27:54;;;;;;;10.45;3.40;;;;;;;6.25;100.00;103920.34;5000244;28;20042;-71
2021/12/18 10:30:20;;;;;;;9.10;3.45;;;;;;;6.35;100.00;103915.41;5000754;28;20064;-71
2021/12/18 10:33:07;;;;;;;11.75;4.00;;;;;;;6.24;100.00;103918.69;5002781;28;20042;-72
2021/12/18 10:35:50;;;;;;;10.93;4.00;;;;;;;6.30;100.00;103914.34;4992394;28;20095;-70
2021/12/18 10:38:38;;;;;;;14.60;4.28;;;;;;;6.50;100.00;103917.16;4980488;28;20038;-71
2021/12/18 10:41:26;;;;;;;7.72;3.47;;;;;;;6.45;100.00;103911.50;5000228;28;20099;-71
2021/12/18 10:44:10;;;;;;;9.50;3.60;;;;;;;6.38;100.00;103916.88;4997970;28;20468;-71
2021/12/18 10:46:39;;;;;;;6.93;3.03;;;;;;;6.09;100.00;103915.25;4999852;28;20046;-70
2021/12/18 10:49:07;;;;;;;5.95;2.53;;;;;;;6.39;100.00;103912.31;4995786;28;20057;-71
2021/12/18 10:51:35;;;;;;;5.55;2.90;;;;;;;6.52;100.00;103909.69;4999963;28;20049;-71
2021/12/18 10:54:13;;;;;;;6.05;2.75;;;;;;;6.44;100.00;103912.53;4992608;28;20046;-71
2021/12/18 10:56:45;;;;;;;4.85;2.47;;;;;;;6.25;100.00;103905.97;4998725;28;20038;-71
2021/12/18 10:59:20;;;;;;;;;;;;;;;6.24;100.00;103898.88;4998565;28;20104;-70
2021/12/18 11:01:53;;;;;;;3.05;1.83;;;;;;;6.23;100.00;103898.03;4982991;28;20040;-71
2021/12/18 11:04:24;;;;;;;3.35;1.73;;;;;;;6.33;100.00;103901.22;5000943;28;20053;-71
2021/12/18 11:06:50;;;;;;;3.83;2.00;;;;;;;6.15;100.00;103903.63;4998469;28;20617;-71
2021/12/18 11:09:17;;;;;;;3.33;2.10;;;;;;;6.57;100.00;103897.19;4998461;28;20136;-71
2021/12/18 11:14:22;;;;;;;3.85;2.30;;;;;;;6.79;100.00;103895.16;5005342;28;20825;-71
2021/12/18 11:16:54;;;;;;;2.63;1.67;;;;;;;6.82;100.00;103887.69;5003034;28;20034;-71
2021/12/18 11:19:22;;;;;;;2.70;1.80;;;;;;;6.60;100.00;103895.91;5003951;28;20991;-71
2021/12/18 11:21:51;;;;;;;3.60;2.08;;;;;;;6.71;100.00;103897.22;5002885;28;20037;-72
2021/12/18 11:24:19;;;;;;;3.20;2.10;;;;;;;7.12;100.00;103891.72;5002100;28;20132;-70
2021/12/18 11:26:55;;;;;;;5.55;2.90;;;;;;;7.35;100.00;103887.78;5001868;28;20857;-71
2021/12/18 11:29:30;;;;;;;2.92;2.40;;;;;;;7.39;100.00;103886.34;5004747;28;20105;-70
2021/12/18 11:31:55;;;;;;;4.78;2.47;;;;;;;7.35;100.00;103876.94;5015018;28;20037;-70
2021/12/18 11:34:21;;;;;;;4.13;2.25;;;;;;;7.23;100.00;103874.81;4996550;28;20052;-71
2021/12/18 11:36:49;;;;;;;5.03;2.20;;;;;;;7.09;100.00;103880.44;5007886;28;20042;-71
2021/12/18 11:39:17;;;;;;;3.78;2.22;;;;;;;7.12;100.00;103880.84;5004164;28;20127;-71
2021/12/18 11:41:49;;;;;;;4.00;1.85;;;;;;;7.06;100.00;103878.97;4999811;28;20046;-73
2021/12/18 11:44:36;;;;;;;3.33;1.48;;;;;;;7.25;100.00;103872.75;5004278;28;20076;-71
2021/12/18 11:47:34;;;;;;;2.60;1.60;;;;;;;6.82;100.00;103874.13;4993851;28;20069;-70
2021/12/18 11:50:21;;;;;;;3.58;2.15;;;;;;;7.49;100.00;103862.31;5004422;28;20029;-72
2021/12/18 11:52:54;;;;;;;2.75;2.00;;;;;;;7.71;100.00;103850.22;4999982;28;20054;-73
2021/12/18 11:55:21;;;;;;;3.00;1.67;;;;;;;7.77;100.00;103855.84;5001277;28;20134;-72
2021/12/18 11:57:49;;;;;;;3.13;1.80;;;;;;;7.57;100.00;103853.97;5005786;28;20044;-72